Time;durP1;ratioP1;P1;durP2;ratioP2;P2;SDS_P1;SDS_P2;PMS_P1;PMS_P2;Temp;Humidity;BMP_temperature;BMP_pressure;BME280_temperature;BME280_humidity;BME280_pressure;Samples;Min_cycle;Max_cycle;Signal;HPM_P1;HPM_P2
2023/09/11 00:02:20;;;;;;;32.65;23.65;;;;;;;;;;5019459;28;20195;-74
2023/09/11 00:04:45;;;;;;;33.00;22.13;;;;;;;;;;5023543;28;20198;-74
2023/09/11 00:07:10;;;;;;;36.78;22.65;;;;;;;;;;5021582;28;20194;-74
2023/09/11 00:09:36;;;;;;;31.10;23.08;;;;;;;;;;5029331;28;20206;-74
2023/09/11 00:12:01;;;;;;;34.30;23.55;;;;;;;;;;5027980;28;20198;-74
2023/09/11 00:14:27;;;;;;;33.67;22.98;;;;;;;;;;5023431;28;20190;-74
2023/09/11 00:16:53;;;;;;;31.38;23.48;;;;;;;;;;5004507;28;20190;-74
2023/09/11 00:19:18;;;;;;;37.25;23.30;;;;;;;;;;5022574;28;20540;-74
2023/09/11 00:21:43;;;;;;;35.33;24.10;;;;;;;;;;5029804;28;20194;-74
2023/09/11 00:24:09;;;;;;;32.75;23.30;;;;;;;;;;5019376;28;20656;-74
2023/09/11 00:26:34;;;;;;;32.67;24.67;;;;;;;;;;5030767;28;20202;-74
2023/09/11 00:28:59;;;;;;;36.83;25.10;;;;;;;;;;5025163;28;20264;-74
2023/09/11 00:31:25;;;;;;;30.40;23.83;;;;;;;;;;5024144;28;20316;-74
2023/09/11 00:33:50;;;;;;;33.80;23.27;;;;;;;;;;5012037;28;20186;-74
2023/09/11 00:36:16;;;;;;;31.75;23.77;;;;;;;;;;5029222;28;20193;-74
2023/09/11 00:38:41;;;;;;;34.40;24.20;;;;;;;;;;5028316;28;20269;-74
2023/09/11 00:41:06;;;;;;;36.55;23.58;;;;;;;;;;5027061;28;20190;-75
2023/09/11 00:43:32;;;;;;;34.17;24.65;;;;;;;;;;5027918;28;20605;-73
2023/09/11 00:45:57;;;;;;;31.67;23.38;;;;;;;;;;5012796;28;20202;-73
2023/09/11 00:48:23;;;;;;;30.88;24.13;;;;;;;;;;5016521;28;20233;-73
2023/09/11 00:50:50;;;;;;;32.45;23.85;;;;;;;;;;5042635;28;20278;-73
2023/09/11 00:53:16;;;;;;;33.10;24.50;;;;;;;;;;5043503;28;20190;-73
2023/09/11 00:55:44;;;;;;;30.25;22.50;;;;;;;;;;5025037;28;20271;-73
2023/09/11 00:58:10;;;;;;;30.65;23.73;;;;;;;;;;5022857;28;20191;-73
2023/09/11 01:00:35;;;;;;;39.03;24.02;;;;;;;;;;5012718;28;20194;-74
2023/09/11 01:03:01;;;;;;;35.45;23.35;;;;;;;;;;5030306;28;20632;-74
2023/09/11 01:05:29;;;;;;;35.95;23.83;;;;;;;;;;5018006;28;20247;-74
2023/09/11 01:07:54;;;;;;;36.97;24.90;;;;;;;;;;5025767;28;20192;-74
2023/09/11 01:10:20;;;;;;;36.38;25.42;;;;;;;;;;5028664;28;20214;-74
2023/09/11 01:12:45;;;;;;;37.20;24.98;;;;;;;;;;5026885;28;20251;-74
2023/09/11 01:15:11;;;;;;;29.60;23.50;;;;;;;;;;5013517;28;20198;-73
2023/09/11 01:18:19;;;;;;;36.33;23.95;;;;;;;;;;5017270;28;20210;-74
2023/09/11 01:20:47;;;;;;;33.35;23.88;;;;;;;;;;5014022;28;20202;-74
2023/09/11 01:23:37;;;;;;;34.72;24.05;;;;;;;;;;5027367;28;20773;-74
2023/09/11 01:26:17;;;;;;;35.38;23.70;;;;;;;;;;5026111;28;20594;-74
2023/09/11 01:29:05;;;;;;;29.80;21.85;;;;;;;;;;5022052;28;20669;-73
2023/09/11 01:31:32;;;;;;;29.92;23.08;;;;;;;;;;5021271;28;20313;-73
2023/09/11 01:34:01;;;;;;;34.90;24.08;;;;;;;;;;5023763;28;20590;-73
2023/09/11 01:36:26;;;;;;;36.92;24.10;;;;;;;;;;5024417;28;20244;-74
2023/09/11 01:38:52;;;;;;;32.42;23.23;;;;;;;;;;5021398;28;20190;-73
2023/09/11 01:41:19;;;;;;;29.95;23.48;;;;;;;;;;5017167;28;20183;-74
2023/09/11 01:43:45;;;;;;;39.88;23.83;;;;;;;;;;5009129;28;20262;-74
2023/09/11 01:46:11;;;;;;;35.03;22.95;;;;;;;;;;5017731;28;20195;-73
2023/09/11 01:48:39;;;;;;;35.08;23.85;;;;;;;;;;5026023;28;20189;-74
2023/09/11 01:51:06;;;;;;;39.53;23.98;;;;;;;;;;5019233;28;20219;-74
2023/09/11 01:53:32;;;;;;;35.13;23.90;;;;;;;;;;5026646;28;20712;-74
2023/09/11 01:55:58;;;;;;;33.90;24.80;;;;;;;;;;5009709;28;20183;-74
2023/09/11 01:58:24;;;;;;;40.50;24.52;;;;;;;;;;5022372;28;20276;-74
2023/09/11 02:00:49;;;;;;;30.30;24.00;;;;;;;;;;5028711;28;20315;-74
2023/09/11 02:03:16;;;;;;;37.10;24.40;;;;;;;;;;5027476;28;20686;-74
2023/09/11 02:05:42;;;;;;;35.00;24.65;;;;;;;;;;5029002;28;20192;-74
2023/09/11 02:08:07;;;;;;;35.95;26.20;;;;;;;;;;5028587;28;20190;-74
2023/09/11 02:10:32;;;;;;;37.22;25.23;;;;;;;;;;5020286;28;20689;-74
2023/09/11 02:12:58;;;;;;;33.03;25.08;;;;;;;;;;5027322;28;20194;-74
2023/09/11 02:15:23;;;;;;;35.78;24.98;;;;;;;;;;5026755;28;20217;-74
2023/09/11 02:17:49;;;;;;;36.92;26.10;;;;;;;;;;5019442;28;20217;-73
2023/09/11 02:20:14;;;;;;;31.95;24.30;;;;;;;;;;5015807;28;20182;-73
2023/09/11 02:22:39;;;;;;;28.88;23.00;;;;;;;;;;5012791;28;20189;-73
2023/09/11 02:25:05;;;;;;;31.25;22.42;;;;;;;;;;5023179;28;20494;-73
2023/09/11 02:27:30;;;;;;;33.63;23.10;;;;;;;;;;5023960;28;20336;-73
2023/09/11 02:29:56;;;;;;;30.45;22.67;;;;;;;;;;5023209;28;20209;-73
2023/09/11 02:32:21;;;;;;;30.77;23.70;;;;;;;;;;5027903;28;20299;-74
2023/09/11 02:34:47;;;;;;;31.23;22.70;;;;;;;;;;5023771;28;20205;-73
2023/09/11 02:37:12;;;;;;;29.77;23.80;;;;;;;;;;5025119;28;20194;-73
2023/09/11 02:39:38;;;;;;;30.48;23.10;;;;;;;;;;5021376;28;20575;-73
2023/09/11 02:42:04;;;;;;;32.78;21.83;;;;;;;;;;5010078;28;20241;-73
2023/09/11 02:44:30;;;;;;;28.40;19.75;;;;;;;;;;5027079;28;20222;-73
2023/09/11 02:46:55;;;;;;;30.10;21.90;;;;;;;;;;5017423;28;20229;-73
2023/09/11 02:49:21;;;;;;;25.00;20.17;;;;;;;;;;5024414;28;20817;-73
2023/09/11 02:51:47;;;;;;;29.02;21.40;;;;;;;;;;5018585;28;20229;-73
2023/09/11 02:54:12;;;;;;;28.77;22.15;;;;;;;;;;5021235;28;20256;-73
2023/09/11 02:56:38;;;;;;;34.63;23.52;;;;;;;;;;5010961;28;20277;-73
2023/09/11 02:59:04;;;;;;;33.28;23.25;;;;;;;;;;5021406;28;20191;-73
2023/09/11 03:01:30;;;;;;;29.10;22.90;;;;;;;;;;5010374;28;20193;-73
2023/09/11 03:03:56;;;;;;;31.70;24.55;;;;;;;;;;5021124;28;20191;-73
2023/09/11 03:06:21;;;;;;;36.65;24.63;;;;;;;;;;5029093;28;20650;-73
2023/09/11 03:08:46;;;;;;;35.55;23.00;;;;;;;;;;5028870;28;20196;-73
2023/09/11 03:11:12;;;;;;;32.88;24.63;;;;;;;;;;5026538;28;20709;-73
2023/09/11 03:13:37;;;;;;;37.03;25.40;;;;;;;;;;5019600;28;20198;-73
2023/09/11 03:16:10;;;;;;;33.13;24.67;;;;;;;;;;5028434;28;20194;-73
2023/09/11 03:18:36;;;;;;;31.35;23.33;;;;;;;;;;5041365;28;20206;-73
2023/09/11 03:21:03;;;;;;;32.20;21.83;;;;;;;;;;5023886;28;20183;-73
2023/09/11 03:23:29;;;;;;;32.45;22.75;;;;;;;;;;5030843;28;20626;-73
2023/09/11 03:25:54;;;;;;;28.92;21.10;;;;;;;;;;5028489;28;20182;-73
2023/09/11 03:28:19;;;;;;;25.50;20.17;;;;;;;;;;5031927;28;20196;-73
2023/09/11 03:30:45;;;;;;;27.83;21.77;;;;;;;;;;5030996;28;20272;-73
2023/09/11 03:33:10;;;;;;;31.35;24.25;;;;;;;;;;5013981;28;20209;-73
2023/09/11 03:35:36;;;;;;;29.75;22.02;;;;;;;;;;5039163;28;20312;-73
2023/09/11 03:38:01;;;;;;;27.90;22.48;;;;;;;;;;5027967;28;20275;-73
2023/09/11 03:40:28;;;;;;;31.83;23.50;;;;;;;;;;5036620;28;20221;-73
2023/09/11 03:42:54;;;;;;;32.47;24.08;;;;;;;;;;5032901;28;20691;-73
2023/09/11 03:45:19;;;;;;;35.78;24.02;;;;;;;;;;5013408;28;20222;-73
2023/09/11 03:47:44;;;;;;;32.20;25.70;;;;;;;;;;5028702;28;20201;-73
2023/09/11 03:50:10;;;;;;;33.53;25.85;;;;;;;;;;5030160;28;20621;-73
2023/09/11 03:52:35;;;;;;;36.78;26.23;;;;;;;;;;5026345;28;20186;-73
2023/09/11 03:55:01;;;;;;;36.58;26.08;;;;;;;;;;5022307;28;20186;-73
2023/09/11 03:57:27;;;;;;;37.63;26.17;;;;;;;;;;5032520;28;20221;-73
2023/09/11 03:59:52;;;;;;;35.13;24.00;;;;;;;;;;5030683;28;20621;-73
2023/09/11 04:02:18;;;;;;;32.85;24.33;;;;;;;;;;5010412;28;20186;-73
2023/09/11 04:04:43;;;;;;;33.53;23.60;;;;;;;;;;5027629;28;20565;-73
2023/09/11 04:07:08;;;;;;;34.50;24.60;;;;;;;;;;5030284;28;20202;-73
2023/09/11 04:09:34;;;;;;;36.05;26.17;;;;;;;;;;5025571;28;20195;-73
2023/09/11 04:12:03;;;;;;;38.42;28.00;;;;;;;;;;5028334;28;20202;-73
2023/09/11 04:14:28;;;;;;;35.70;26.00;;;;;;;;;;5028495;28;20259;-73
2023/09/11 04:16:54;;;;;;;39.30;27.40;;;;;;;;;;5020774;28;20642;-73
2023/09/11 04:19:19;;;;;;;40.45;28.00;;;;;;;;;;5019765;28;20615;-73
2023/09/11 04:21:45;;;;;;;33.95;26.55;;;;;;;;;;5012608;28;20195;-73
2023/09/11 04:24:12;;;;;;;34.47;26.98;;;;;;;;;;5023285;28;20241;-73
2023/09/11 04:26:41;;;;;;;35.45;25.48;;;;;;;;;;5021944;28;20205;-73
2023/09/11 04:29:11;;;;;;;31.95;25.70;;;;;;;;;;5016950;28;20234;-73
2023/09/11 04:31:37;;;;;;;30.95;23.50;;;;;;;;;;5027547;28;20727;-72
2023/09/11 04:34:03;;;;;;;38.25;25.33;;;;;;;;;;5023424;28;20268;-72
2023/09/11 04:36:28;;;;;;;36.92;24.52;;;;;;;;;;5027955;28;20190;-72
2023/09/11 04:38:54;;;;;;;30.40;24.05;;;;;;;;;;5010076;28;20335;-72
2023/09/11 04:41:20;;;;;;;35.15;24.20;;;;;;;;;;5021808;28;20194;-72
2023/09/11 04:43:46;;;;;;;40.70;26.13;;;;;;;;;;5037795;28;20320;-72
2023/09/11 04:46:11;;;;;;;33.75;24.60;;;;;;;;;;5018135;28;20244;-72
2023/09/11 04:48:37;;;;;;;32.35;25.25;;;;;;;;;;5011476;28;20642;-72
2023/09/11 04:51:02;;;;;;;34.55;23.33;;;;;;;;;;5029805;28;20218;-73
2023/09/11 04:53:27;;;;;;;39.05;24.83;;;;;;;;;;5024824;28;20259;-73
2023/09/11 04:55:53;;;;;;;32.85;22.85;;;;;;;;;;5028916;28;20195;-73
2023/09/11 04:58:18;;;;;;;34.08;23.98;;;;;;;;;;5021218;28;20261;-73
2023/09/11 05:00:44;;;;;;;34.22;23.95;;;;;;;;;;5019365;28;20178;-72
2023/09/11 05:03:09;;;;;;;42.65;26.27;;;;;;;;;;5023467;28;20537;-73
2023/09/11 05:05:40;;;;;;;39.67;28.98;;;;;;;;;;5026300;28;20183;-73
2023/09/11 05:08:07;;;;;;;34.75;27.13;;;;;;;;;;5015008;28;20273;-73
2023/09/11 05:10:32;;;;;;;41.30;27.27;;;;;;;;;;5018079;28;20678;-73
2023/09/11 05:12:59;;;;;;;36.92;26.20;;;;;;;;;;5028142;28;20244;-73
2023/09/11 05:15:24;;;;;;;33.65;24.73;;;;;;;;;;5024222;28;20198;-73
2023/09/11 05:17:51;;;;;;;37.28;24.98;;;;;;;;;;5018328;28;20239;-73
2023/09/11 05:20:16;;;;;;;37.25;24.83;;;;;;;;;;5021138;28;20629;-72
2023/09/11 05:22:42;;;;;;;35.03;24.42;;;;;;;;;;5010990;28;20282;-73
2023/09/11 05:25:08;;;;;;;35.40;23.73;;;;;;;;;;5010517;28;20212;-73
2023/09/11 05:27:33;;;;;;;35.13;23.73;;;;;;;;;;5030480;28;20227;-73
2023/09/11 05:29:58;;;;;;;37.88;25.13;;;;;;;;;;5025692;28;20693;-73
2023/09/11 05:32:25;;;;;;;34.65;23.75;;;;;;;;;;5019817;28;20194;-73
2023/09/11 05:34:51;;;;;;;34.67;23.60;;;;;;;;;;5017641;28;20294;-73
2023/09/11 05:37:16;;;;;;;33.45;23.15;;;;;;;;;;5019024;28;20263;-73
2023/09/11 05:39:43;;;;;;;31.63;23.92;;;;;;;;;;5022964;28;20189;-73
2023/09/11 05:42:09;;;;;;;36.67;23.25;;;;;;;;;;5015538;28;20661;-73
2023/09/11 05:44:34;;;;;;;35.15;23.67;;;;;;;;;;5018826;28;20222;-73
2023/09/11 05:47:00;;;;;;;34.22;23.77;;;;;;;;;;5017153;28;20821;-73
2023/09/11 05:49:25;;;;;;;38.00;25.40;;;;;;;;;;5019758;28;20203;-72
2023/09/11 05:51:51;;;;;;;30.33;23.63;;;;;;;;;;5012263;28;20689;-73
2023/09/11 05:54:16;;;;;;;40.15;26.02;;;;;;;;;;5018474;28;20204;-73
2023/09/11 05:56:41;;;;;;;38.25;24.05;;;;;;;;;;5021561;28;20230;-72
2023/09/11 05:59:07;;;;;;;38.35;24.58;;;;;;;;;;5017215;28;20516;-73
2023/09/11 06:01:32;;;;;;;36.38;25.65;;;;;;;;;;5022480;28;20277;-72
2023/09/11 06:03:58;;;;;;;36.38;24.70;;;;;;;;;;5017686;28;20182;-72
2023/09/11 06:06:24;;;;;;;43.72;26.25;;;;;;;;;;5017212;28;20198;-73
2023/09/11 06:08:49;;;;;;;40.92;26.10;;;;;;;;;;5012348;28;20277;-72
2023/09/11 06:11:14;;;;;;;38.47;26.08;;;;;;;;;;5027270;28;20202;-72
2023/09/11 06:13:41;;;;;;;41.28;25.13;;;;;;;;;;5014531;28;20194;-73
2023/09/11 06:16:07;;;;;;;35.17;25.45;;;;;;;;;;5026975;28;20217;-72
2023/09/11 06:18:32;;;;;;;46.40;25.48;;;;;;;;;;5020047;28;20195;-73
2023/09/11 06:20:58;;;;;;;39.35;26.48;;;;;;;;;;5016943;28;20198;-73
2023/09/11 06:23:23;;;;;;;51.90;25.63;;;;;;;;;;5021637;28;20629;-73
2023/09/11 06:25:48;;;;;;;40.60;25.75;;;;;;;;;;5028849;28;20198;-73
2023/09/11 06:28:14;;;;;;;38.30;24.75;;;;;;;;;;4994339;28;20267;-73
2023/09/11 06:30:39;;;;;;;40.35;26.35;;;;;;;;;;5029468;28;20213;-73
2023/09/11 06:33:05;;;;;;;38.78;24.52;;;;;;;;;;5024765;28;20197;-73
2023/09/11 06:35:30;;;;;;;42.70;25.35;;;;;;;;;;5027278;28;20194;-73
2023/09/11 06:37:55;;;;;;;46.30;25.02;;;;;;;;;;5024510;28;20592;-73
2023/09/11 06:40:21;;;;;;;47.22;25.38;;;;;;;;;;5021192;28;20187;-72
2023/09/11 06:42:46;;;;;;;55.08;25.20;;;;;;;;;;5021869;28;20216;-73
2023/09/11 06:45:11;;;;;;;39.92;23.67;;;;;;;;;;5026558;28;20230;-73
2023/09/11 06:47:37;;;;;;;41.17;24.50;;;;;;;;;;5024918;28;20198;-72
2023/09/11 06:50:02;;;;;;;38.08;22.90;;;;;;;;;;5029073;28;20593;-72
2023/09/11 06:52:28;;;;;;;44.55;23.05;;;;;;;;;;5023232;28;20203;-73
2023/09/11 06:54:54;;;;;;;39.75;23.98;;;;;;;;;;5016838;28;20221;-73
2023/09/11 06:57:20;;;;;;;38.63;21.63;;;;;;;;;;5015756;28;20194;-73
2023/09/11 06:59:45;;;;;;;40.58;22.80;;;;;;;;;;5020331;28;20194;-72
2023/09/11 07:02:10;;;;;;;38.10;22.20;;;;;;;;;;5010203;28;20187;-71
2023/09/11 07:04:36;;;;;;;36.22;21.17;;;;;;;;;;5021654;28;20562;-72
2023/09/11 07:07:01;;;;;;;30.65;19.98;;;;;;;;;;5030356;28;20560;-72
2023/09/11 07:09:26;;;;;;;34.92;20.33;;;;;;;;;;5030132;28;20198;-73
2023/09/11 07:11:56;;;;;;;40.42;20.63;;;;;;;;;;5027713;28;20221;-72
2023/09/11 07:14:23;;;;;;;38.15;20.65;;;;;;;;;;5038201;28;20542;-73
2023/09/11 07:16:49;;;;;;;39.35;22.00;;;;;;;;;;5016954;28;20645;-72
2023/09/11 07:19:15;;;;;;;40.67;21.50;;;;;;;;;;5028137;28;20190;-73
2023/09/11 07:21:41;;;;;;;40.40;20.88;;;;;;;;;;5028577;28;20197;-72
2023/09/11 07:24:07;;;;;;;27.02;20.00;;;;;;;;;;5029340;28;20667;-72
2023/09/11 07:26:32;;;;;;;30.02;20.02;;;;;;;;;;5025405;28;20236;-71
2023/09/11 07:29:01;;;;;;;34.15;18.90;;;;;;;;;;5025049;28;20197;-71
2023/09/11 07:31:27;;;;;;;30.10;19.23;;;;;;;;;;5027681;28;20368;-72
2023/09/11 07:33:53;;;;;;;36.10;18.23;;;;;;;;;;5022792;28;20581;-71
2023/09/11 07:36:19;;;;;;;35.72;18.17;;;;;;;;;;5016152;28;20194;-71
2023/09/11 07:38:45;;;;;;;31.10;18.83;;;;;;;;;;5031517;28;20186;-72
2023/09/11 07:41:15;;;;;;;38.47;18.88;;;;;;;;;;5045367;28;20186;-71
2023/09/11 07:43:42;;;;;;;36.35;18.25;;;;;;;;;;5027833;28;20241;-71
2023/09/11 07:46:08;;;;;;;30.55;17.85;;;;;;;;;;5014685;28;20191;-71
2023/09/11 07:48:35;;;;;;;36.63;16.70;;;;;;;;;;5023800;28;20676;-71
2023/09/11 07:51:00;;;;;;;28.02;16.30;;;;;;;;;;5030367;28;20282;-72
2023/09/11 07:53:26;;;;;;;35.22;16.95;;;;;;;;;;5040866;28;20557;-72
2023/09/11 07:55:51;;;;;;;35.28;16.08;;;;;;;;;;5028771;28;20224;-72
2023/09/11 07:58:17;;;;;;;34.63;16.98;;;;;;;;;;5031665;28;20226;-72
2023/09/11 08:00:42;;;;;;;23.23;15.63;;;;;;;;;;5026925;28;20525;-73
2023/09/11 08:03:08;;;;;;;31.90;15.25;;;;;;;;;;5030881;28;20260;-73
2023/09/11 08:05:33;;;;;;;25.90;14.30;;;;;;;;;;5029619;28;20279;-72
2023/09/11 08:08:01;;;;;;;23.55;14.48;;;;;;;;;;5046278;28;20181;-72
2023/09/11 08:10:27;;;;;;;27.45;14.70;;;;;;;;;;5025843;28;20210;-72
2023/09/11 08:12:52;;;;;;;23.02;14.50;;;;;;;;;;5016158;28;20618;-71
2023/09/11 08:15:18;;;;;;;23.55;13.73;;;;;;;;;;5020574;28;20221;-70
2023/09/11 08:17:43;;;;;;;19.88;12.55;;;;;;;;;;5032251;28;20237;-70
2023/09/11 08:20:09;;;;;;;25.42;13.00;;;;;;;;;;5024917;28;20197;-71
2023/09/11 08:22:34;;;;;;;25.02;13.13;;;;;;;;;;5016604;28;20545;-71
2023/09/11 08:25:00;;;;;;;17.13;12.15;;;;;;;;;;5026366;28;20259;-71
2023/09/11 08:27:25;;;;;;;23.10;12.90;;;;;;;;;;5028709;28;20190;-70
2023/09/11 08:29:52;;;;;;;23.52;11.85;;;;;;;;;;5024888;28;20634;-70
2023/09/11 08:32:18;;;;;;;21.25;12.95;;;;;;;;;;5030029;28;20272;-71
2023/09/11 08:34:43;;;;;;;24.42;12.95;;;;;;;;;;5024104;28;20277;-70
2023/09/11 08:37:09;;;;;;;25.70;12.80;;;;;;;;;;5022275;28;20243;-70
2023/09/11 08:39:34;;;;;;;21.75;11.27;;;;;;;;;;5028365;28;20300;-70
2023/09/11 08:42:00;;;;;;;24.65;12.77;;;;;;;;;;5023957;28;20191;-71
2023/09/11 08:44:26;;;;;;;26.90;12.25;;;;;;;;;;5017401;28;20225;-71
2023/09/11 08:46:56;;;;;;;25.50;13.10;;;;;;;;;;5023569;28;20212;-70
2023/09/11 08:49:25;;;;;;;20.42;12.13;;;;;;;;;;5024256;28;20185;-71
2023/09/11 08:51:53;;;;;;;20.60;12.70;;;;;;;;;;5029855;28;20217;-71
2023/09/11 08:54:20;;;;;;;20.35;13.23;;;;;;;;;;5012413;28;20195;-71
2023/09/11 08:56:46;;;;;;;21.77;12.80;;;;;;;;;;5026266;28;20201;-70
2023/09/11 08:59:17;;;;;;;26.38;12.00;;;;;;;;;;5023249;28;20255;-71
2023/09/11 09:01:43;;;;;;;21.00;11.48;;;;;;;;;;5025941;28;20221;-71
2023/09/11 09:04:11;;;;;;;28.67;12.45;;;;;;;;;;5025352;28;20220;-71
2023/09/11 09:06:37;;;;;;;21.83;11.38;;;;;;;;;;5009483;28;20186;-70
2023/09/11 09:09:02;;;;;;;19.73;11.15;;;;;;;;;;5023619;28;20193;-72
2023/09/11 09:11:29;;;;;;;23.70;11.25;;;;;;;;;;5032930;28;20214;-72
2023/09/11 09:13:55;;;;;;;21.27;11.35;;;;;;;;;;5010870;28;20249;-72
2023/09/11 09:16:20;;;;;;;22.38;10.20;;;;;;;;;;5026833;28;20940;-70
2023/09/11 09:18:51;;;;;;;20.52;9.75;;;;;;;;;;5015633;28;20725;-71
2023/09/11 09:21:17;;;;;;;23.65;10.98;;;;;;;;;;5020315;28;20202;-72
2023/09/11 09:23:42;;;;;;;18.50;11.05;;;;;;;;;;5022741;28;20558;-72
2023/09/11 09:26:10;;;;;;;23.00;11.23;;;;;;;;;;5029243;28;20186;-72
2023/09/11 09:28:44;;;;;;;18.98;10.55;;;;;;;;;;5016525;28;20187;-71
2023/09/11 09:31:12;;;;;;;20.67;10.75;;;;;;;;;;5025541;28;20297;-71
2023/09/11 09:33:38;;;;;;;16.80;10.85;;;;;;;;;;5022710;28;20605;-73
2023/09/11 09:36:06;;;;;;;24.75;10.73;;;;;;;;;;5015061;28;20194;-73
2023/09/11 09:38:32;;;;;;;25.45;11.10;;;;;;;;;;5017497;28;20256;-71
2023/09/11 09:40:57;;;;;;;24.33;11.38;;;;;;;;;;5016863;28;20646;-70
2023/09/11 09:43:23;;;;;;;19.50;10.60;;;;;;;;;;5023900;28;20595;-72
2023/09/11 09:45:48;;;;;;;21.08;10.63;;;;;;;;;;5024136;28;20194;-72
2023/09/11 09:48:18;;;;;;;19.15;11.30;;;;;;;;;;5012307;28;20202;-72
2023/09/11 09:51:01;;;;;;;19.58;11.15;;;;;;;;;;5019471;28;20225;-71
2023/09/11 09:53:42;;;;;;;21.98;11.57;;;;;;;;;;5024129;28;20272;-71
2023/09/11 09:56:10;;;;;;;22.30;10.40;;;;;;;;;;5020534;28;20282;-71
2023/09/11 09:58:37;;;;;;;20.45;10.32;;;;;;;;;;5016556;28;20178;-71
2023/09/11 10:01:08;;;;;;;15.35;10.40;;;;;;;;;;5023031;28;20187;-71
2023/09/11 10:03:38;;;;;;;19.23;11.00;;;;;;;;;;5019601;28;20196;-73
2023/09/11 10:06:08;;;;;;;19.35;11.00;;;;;;;;;;5026776;28;20181;-72
2023/09/11 10:08:33;;;;;;;18.55;11.40;;;;;;;;;;5018707;28;20209;-72
2023/09/11 10:10:59;;;;;;;19.00;10.55;;;;;;;;;;5024955;28;20253;-70
2023/09/11 10:13:27;;;;;;;18.35;10.60;;;;;;;;;;5023103;28;20205;-71
2023/09/11 10:15:56;;;;;;;23.52;11.05;;;;;;;;;;5019266;28;20489;-71
2023/09/11 10:18:23;;;;;;;14.98;11.43;;;;;;;;;;5022460;28;20210;-72
2023/09/11 10:20:49;;;;;;;16.27;10.63;;;;;;;;;;5020540;28;20198;-71
2023/09/11 10:23:15;;;;;;;18.15;10.63;;;;;;;;;;5023064;28;20186;-71
2023/09/11 10:25:46;;;;;;;22.42;10.60;;;;;;;;;;5015373;28;20523;-70
2023/09/11 10:28:24;;;;;;;18.27;10.18;;;;;;;;;;5022334;28;20273;-71
2023/09/11 10:31:04;;;;;;;17.63;9.75;;;;;;;;;;5014522;28;20630;-71
2023/09/11 10:33:31;;;;;;;16.00;10.00;;;;;;;;;;5024112;28;20190;-71
2023/09/11 10:36:03;;;;;;;22.05;10.73;;;;;;;;;;5028290;28;20209;-72
2023/09/11 10:38:31;;;;;;;17.00;10.65;;;;;;;;;;5014340;28;20198;-72
2023/09/11 10:40:59;;;;;;;18.48;10.68;;;;;;;;;;5023404;28;20681;-71
2023/09/11 10:43:25;;;;;;;15.77;10.40;;;;;;;;;;5014766;28;20190;-71
2023/09/11 10:45:51;;;;;;;16.33;10.80;;;;;;;;;;5023236;28;20261;-72
2023/09/11 10:48:31;;;;;;;18.45;9.98;;;;;;;;;;5024024;28;20278;-71
2023/09/11 10:50:57;;;;;;;15.50;9.32;;;;;;;;;;5013894;28;20217;-71
2023/09/11 10:53:30;;;;;;;16.52;9.73;;;;;;;;;;5026245;28;20198;-72
2023/09/11 10:55:58;;;;;;;15.68;9.82;;;;;;;;;;5020247;28;20515;-73
2023/09/11 10:58:25;;;;;;;16.77;9.02;;;;;;;;;;5018446;28;20198;-72
2023/09/11 11:00:55;;;;;;;14.85;9.18;;;;;;;;;;5013863;28;20281;-71
2023/09/11 11:03:30;;;;;;;13.45;9.10;;;;;;;;;;5016749;28;20210;-72
2023/09/11 11:05:59;;;;;;;16.98;9.60;;;;;;;;;;5016268;28;20634;-72
2023/09/11 11:08:24;;;;;;;12.77;8.85;;;;;;;;;;5023042;28;20196;-72
2023/09/11 11:10:52;;;;;;;15.23;8.70;;;;;;;;;;5014825;28;20279;-72
2023/09/11 11:13:18;;;;;;;12.90;9.20;;;;;;;;;;5025182;28;20252;-70
2023/09/11 11:15:43;;;;;;;16.33;9.88;;;;;;;;;;5028576;28;20598;-71
2023/09/11 11:18:26;;;;;;;16.45;10.10;;;;;;;;;;5018865;28;20206;-71
2023/09/11 11:21:00;;;;;;;19.00;9.85;;;;;;;;;;5044577;28;20273;-71
2023/09/11 11:23:28;;;;;;;15.98;9.70;;;;;;;;;;5027136;28;20193;-70
2023/09/11 11:25:54;;;;;;;18.17;10.15;;;;;;;;;;5021350;28;20198;-72
2023/09/11 11:28:22;;;;;;;18.52;9.50;;;;;;;;;;5033812;28;20197;-72
2023/09/11 11:30:52;;;;;;;19.30;9.45;;;;;;;;;;5032387;28;20279;-71
2023/09/11 11:33:22;;;;;;;15.38;9.65;;;;;;;;;;5046593;28;20515;-72
2023/09/11 11:35:48;;;;;;;17.30;9.63;;;;;;;;;;5032667;28;20680;-70
2023/09/11 11:38:15;;;;;;;17.23;10.20;;;;;;;;;;5027883;28;20191;-72
2023/09/11 11:40:41;;;;;;;16.33;9.45;;;;;;;;;;5017099;28;20186;-72
2023/09/11 11:43:06;;;;;;;17.73;9.38;;;;;;;;;;5023383;28;20653;-72
2023/09/11 11:45:32;;;;;;;15.73;9.77;;;;;;;;;;5014822;28;20358;-72
2023/09/11 11:47:57;;;;;;;15.48;10.73;;;;;;;;;;5031438;28;20247;-72
2023/09/11 11:50:23;;;;;;;17.80;10.00;;;;;;;;;;5032178;28;20217;-72
2023/09/11 11:52:48;;;;;;;16.55;10.15;;;;;;;;;;5029086;28;20499;-72
2023/09/11 11:55:19;;;;;;;16.77;10.05;;;;;;;;;;5020852;28;20195;-72
2023/09/11 11:57:48;;;;;;;17.35;11.38;;;;;;;;;;5027241;28;20206;-73
2023/09/11 12:00:13;;;;;;;19.70;12.98;;;;;;;;;;5009376;28;20179;-72
2023/09/11 12:02:39;;;;;;;15.63;12.18;;;;;;;;;;5026042;28;20269;-73
2023/09/11 12:05:12;;;;;;;17.17;12.68;;;;;;;;;;5030743;28;20293;-73
2023/09/11 12:07:37;;;;;;;19.00;12.32;;;;;;;;;;5038674;28;20182;-73
2023/09/11 12:10:03;;;;;;;17.35;11.70;;;;;;;;;;5023354;28;20810;-73
2023/09/11 12:12:29;;;;;;;19.40;13.13;;;;;;;;;;5024879;28;20190;-73
2023/09/11 12:14:56;;;;;;;20.35;13.13;;;;;;;;;;5023834;28;20223;-73
2023/09/11 12:17:21;;;;;;;18.08;11.73;;;;;;;;;;5029066;28;20778;-72
2023/09/11 12:19:47;;;;;;;17.00;12.38;;;;;;;;;;5027676;28;20210;-72
2023/09/11 12:22:13;;;;;;;15.38;11.60;;;;;;;;;;5022961;28;20608;-73
2023/09/11 12:24:38;;;;;;;17.63;12.40;;;;;;;;;;5019982;28;20225;-72
2023/09/11 12:27:04;;;;;;;19.35;12.52;;;;;;;;;;5030915;28;20202;-73
2023/09/11 12:29:30;;;;;;;17.17;11.55;;;;;;;;;;5017651;28;20183;-72
2023/09/11 12:31:56;;;;;;;17.75;12.70;;;;;;;;;;5018900;28;20268;-73
2023/09/11 12:34:23;;;;;;;16.02;11.90;;;;;;;;;;5035934;28;20253;-73
2023/09/11 12:36:48;;;;;;;21.23;11.57;;;;;;;;;;5024390;28;20252;-73
2023/09/11 12:39:14;;;;;;;15.07;10.27;;;;;;;;;;5016139;28;20198;-73
2023/09/11 12:41:39;;;;;;;13.73;10.13;;;;;;;;;;5027684;28;20552;-72
2023/09/11 12:44:05;;;;;;;16.63;9.63;;;;;;;;;;5030258;28;20279;-73
2023/09/11 12:46:31;;;;;;;15.40;9.35;;;;;;;;;;5030404;28;20186;-74
2023/09/11 12:48:56;;;;;;;12.98;8.68;;;;;;;;;;5028938;28;20517;-73
2023/09/11 12:51:22;;;;;;;14.43;9.07;;;;;;;;;;5041763;28;20237;-74
2023/09/11 12:53:47;;;;;;;12.02;9.05;;;;;;;;;;5025186;28;20202;-73
2023/09/11 12:56:19;;;;;;;13.00;8.60;;;;;;;;;;5023811;28;20312;-73
2023/09/11 12:58:45;;;;;;;12.88;8.15;;;;;;;;;;5027027;28;20209;-73
2023/09/11 13:01:11;;;;;;;10.52;7.75;;;;;;;;;;4307402;28;10000807;-74
2023/09/11 13:03:42;;;;;;;15.90;8.30;;;;;;;;;;5017367;28;20276;-73
2023/09/11 13:06:08;;;;;;;12.35;8.10;;;;;;;;;;5028152;28;20326;-73
2023/09/11 13:08:33;;;;;;;11.30;7.35;;;;;;;;;;5018654;28;20423;-73
2023/09/11 13:10:59;;;;;;;11.50;7.50;;;;;;;;;;5024973;28;20217;-74
2023/09/11 13:13:24;;;;;;;12.15;7.90;;;;;;;;;;5007392;28;20220;-73
2023/09/11 13:15:50;;;;;;;11.88;7.70;;;;;;;;;;5023968;28;20741;-73
2023/09/11 13:18:16;;;;;;;12.38;7.72;;;;;;;;;;5034283;28;20217;-73
2023/09/11 13:20:42;;;;;;;14.30;7.85;;;;;;;;;;5030634;28;20185;-74
2023/09/11 13:23:07;;;;;;;14.98;7.72;;;;;;;;;;5019980;28;20607;-72
2023/09/11 13:25:32;;;;;;;13.27;7.65;;;;;;;;;;5032791;28;20198;-74
2023/09/11 13:27:58;;;;;;;11.32;7.35;;;;;;;;;;5022698;28;20380;-73
2023/09/11 13:30:23;;;;;;;11.57;8.02;;;;;;;;;;5021885;28;20241;-73
2023/09/11 13:32:48;;;;;;;9.68;6.93;;;;;;;;;;5026439;28;20221;-73
2023/09/11 13:35:14;;;;;;;31.10;7.55;;;;;;;;;;5012621;28;20197;-73
2023/09/11 13:37:40;;;;;;;18.88;7.68;;;;;;;;;;5013980;28;20293;-71
2023/09/11 13:40:06;;;;;;;15.82;7.60;;;;;;;;;;5020374;28;20220;-73
2023/09/11 13:42:32;;;;;;;38.63;8.35;;;;;;;;;;5016191;28;20697;-73
2023/09/11 13:44:57;;;;;;;14.18;7.43;;;;;;;;;;5014100;28;20238;-73
2023/09/11 13:47:24;;;;;;;17.30;7.80;;;;;;;;;;5025047;28;20516;-72
2023/09/11 13:49:50;;;;;;;11.18;7.25;;;;;;;;;;5019274;28;20194;-73
2023/09/11 13:52:17;;;;;;;10.15;6.50;;;;;;;;;;5024678;28;20293;-74
2023/09/11 13:54:44;;;;;;;14.02;7.40;;;;;;;;;;5024671;28;20194;-74
2023/09/11 13:57:10;;;;;;;11.88;7.10;;;;;;;;;;5018560;28;20191;-74
2023/09/11 13:59:35;;;;;;;7.75;6.30;;;;;;;;;;5016350;28;20277;-73
2023/09/11 14:02:01;;;;;;;7.80;6.32;;;;;;;;;;5025796;28;20328;-74
2023/09/11 14:04:27;;;;;;;13.70;7.30;;;;;;;;;;5024174;28;20208;-74
2023/09/11 14:06:52;;;;;;;7.80;6.20;;;;;;;;;;5016536;28;20298;-74
2023/09/11 14:09:17;;;;;;;8.93;5.85;;;;;;;;;;5037054;28;20201;-74
2023/09/11 14:11:43;;;;;;;8.32;6.10;;;;;;;;;;5016948;28;20304;-74
2023/09/11 14:14:08;;;;;;;8.55;5.75;;;;;;;;;;5008692;28;20233;-75
2023/09/11 14:16:33;;;;;;;9.07;6.07;;;;;;;;;;5015619;28;20194;-73